sensor_id;sensor_type;location;lat;lon;timestamp;pressure;altitude;pressure_sealevel;temperature;humidity
25510;BME280;13413;52.336;21.200;2022-12-18T00:02:03;101830.30;;;-1.41;62.26
25510;BME280;13413;52.336;21.200;2022-12-18T00:05:22;101831.51;;;-1.37;62.21
25510;BME280;13413;52.336;21.200;2022-12-18T00:08:43;101837.52;;;-1.35;62.41
25510;BME280;13413;52.336;21.200;2022-12-18T00:12:01;101839.10;;;-1.28;62.30
25510;BME280;13413;52.336;21.200;2022-12-18T00:15:20;101844.77;;;-1.34;62.14
25510;BME280;13413;52.336;21.200;2022-12-18T00:18:41;101842.77;;;-1.36;62.27
25510;BME280;13413;52.336;21.200;2022-12-18T00:22:01;101842.85;;;-1.34;62.37
25510;BME280;13413;52.336;21.200;2022-12-18T00:25:20;101851.71;;;-1.35;62.33
25510;BME280;13413;52.336;21.200;2022-12-18T00:28:39;101855.21;;;-1.27;62.43
25510;BME280;13413;52.336;21.200;2022-12-18T00:31:58;101862.55;;;-1.28;62.07
25510;BME280;13413;52.336;21.200;2022-12-18T00:35:31;101866.72;;;-1.36;62.11
25510;BME280;13413;52.336;21.200;2022-12-18T00:38:50;101870.45;;;-1.39;62.16
25510;BME280;13413;52.336;21.200;2022-12-18T00:42:09;101874.27;;;-1.39;62.14
25510;BME280;13413;52.336;21.200;2022-12-18T00:45:30;101881.71;;;-1.39;62.23
25510;BME280;13413;52.336;21.200;2022-12-18T00:48:49;101881.75;;;-1.35;62.26
25510;BME280;13413;52.336;21.200;2022-12-18T00:52:09;101882.75;;;-1.38;62.16
25510;BME280;13413;52.336;21.200;2022-12-18T00:55:27;101880.52;;;-1.39;62.27
25510;BME280;13413;52.336;21.200;2022-12-18T00:58:45;101884.11;;;-1.33;62.46
25510;BME280;13413;52.336;21.200;2022-12-18T01:08:02;101902.69;;;-1.25;62.21
25510;BME280;13413;52.336;21.200;2022-12-18T01:11:42;101906.66;;;-1.21;62.29
25510;BME280;13413;52.336;21.200;2022-12-18T01:15:01;101908.99;;;-1.14;62.26
25510;BME280;13413;52.336;21.200;2022-12-18T01:18:20;101909.32;;;-1.14;62.12
25510;BME280;13413;52.336;21.200;2022-12-18T01:21:39;101910.66;;;-1.12;62.31
25510;BME280;13413;52.336;21.200;2022-12-18T01:24:59;101918.06;;;-1.03;62.33
25510;BME280;13413;52.336;21.200;2022-12-18T01:28:18;101914.25;;;-1.03;62.20
25510;BME280;13413;52.336;21.200;2022-12-18T01:31:37;101913.98;;;-1.01;62.22
25510;BME280;13413;52.336;21.200;2022-12-18T01:34:56;101915.24;;;-1.02;62.20
25510;BME280;13413;52.336;21.200;2022-12-18T01:38:14;101924.09;;;-1.02;62.29
25510;BME280;13413;52.336;21.200;2022-12-18T01:41:34;101933.15;;;-0.98;62.31
25510;BME280;13413;52.336;21.200;2022-12-18T01:45:02;101942.09;;;-0.96;62.34
25510;BME280;13413;52.336;21.200;2022-12-18T01:48:22;101948.23;;;-1.02;62.21
25510;BME280;13413;52.336;21.200;2022-12-18T01:51:42;101955.10;;;-0.96;62.27
25510;BME280;13413;52.336;21.200;2022-12-18T01:55:04;101958.80;;;-0.93;62.34
25510;BME280;13413;52.336;21.200;2022-12-18T01:58:30;101959.17;;;-0.93;62.24
25510;BME280;13413;52.336;21.200;2022-12-18T02:01:51;101969.80;;;-0.94;62.34
25510;BME280;13413;52.336;21.200;2022-12-18T02:05:13;101970.38;;;-0.91;62.33
25510;BME280;13413;52.336;21.200;2022-12-18T02:08:58;101974.81;;;-0.89;62.24
25510;BME280;13413;52.336;21.200;2022-12-18T02:12:24;101977.11;;;-0.90;62.36
25510;BME280;13413;52.336;21.200;2022-12-18T02:15:49;101978.30;;;-0.94;62.37
25510;BME280;13413;52.336;21.200;2022-12-18T02:19:20;101984.83;;;-0.92;62.43
25510;BME280;13413;52.336;21.200;2022-12-18T02:22:48;101982.68;;;-0.90;62.43
25510;BME280;13413;52.336;21.200;2022-12-18T02:26:22;101988.85;;;-0.88;62.32
25510;BME280;13413;52.336;21.200;2022-12-18T02:29:49;101994.64;;;-0.82;62.27
25510;BME280;13413;52.336;21.200;2022-12-18T02:33:11;102002.17;;;-0.83;62.13
25510;BME280;13413;52.336;21.200;2022-12-18T02:36:33;102005.13;;;-0.91;62.05
25510;BME280;13413;52.336;21.200;2022-12-18T02:39:56;101999.88;;;-0.95;62.12
25510;BME280;13413;52.336;21.200;2022-12-18T02:43:17;101996.14;;;-0.97;62.13
25510;BME280;13413;52.336;21.200;2022-12-18T02:46:40;102002.66;;;-1.00;62.15
25510;BME280;13413;52.336;21.200;2022-12-18T02:50:05;102013.27;;;-1.00;62.31
25510;BME280;13413;52.336;21.200;2022-12-18T02:53:30;102018.74;;;-1.03;61.98
25510;BME280;13413;52.336;21.200;2022-12-18T02:56:55;102026.08;;;-1.04;62.13
25510;BME280;13413;52.336;21.200;2022-12-18T03:00:19;102032.19;;;-1.09;61.97
25510;BME280;13413;52.336;21.200;2022-12-18T03:03:43;102043.22;;;-1.07;62.24
25510;BME280;13413;52.336;21.200;2022-12-18T03:07:11;102049.30;;;-1.07;62.13
25510;BME280;13413;52.336;21.200;2022-12-18T03:10:37;102055.41;;;-1.08;62.01
25510;BME280;13413;52.336;21.200;2022-12-18T03:13:59;102056.25;;;-1.11;61.79
25510;BME280;13413;52.336;21.200;2022-12-18T03:17:17;102070.98;;;-1.11;62.09
25510;BME280;13413;52.336;21.200;2022-12-18T03:20:38;102069.62;;;-1.12;61.72
25510;BME280;13413;52.336;21.200;2022-12-18T03:30:02;102069.21;;;-0.97;61.79
25510;BME280;13413;52.336;21.200;2022-12-18T03:33:25;102075.60;;;-1.05;61.76
25510;BME280;13413;52.336;21.200;2022-12-18T03:36:46;102080.80;;;-1.04;61.70
25510;BME280;13413;52.336;21.200;2022-12-18T03:40:07;102088.37;;;-1.07;61.72
25510;BME280;13413;52.336;21.200;2022-12-18T03:43:34;102096.38;;;-1.17;61.63
25510;BME280;13413;52.336;21.200;2022-12-18T03:47:01;102100.79;;;-1.14;61.78
25510;BME280;13413;52.336;21.200;2022-12-18T03:50:29;102114.91;;;-1.20;61.66
25510;BME280;13413;52.336;21.200;2022-12-18T03:53:56;102115.61;;;-1.30;61.74
25510;BME280;13413;52.336;21.200;2022-12-18T03:57:20;102118.61;;;-1.22;61.85
25510;BME280;13413;52.336;21.200;2022-12-18T04:00:41;102118.06;;;-1.21;61.73
25510;BME280;13413;52.336;21.200;2022-12-18T04:04:01;102112.54;;;-1.17;61.74
25510;BME280;13413;52.336;21.200;2022-12-18T04:07:21;102122.49;;;-1.18;61.59
25510;BME280;13413;52.336;21.200;2022-12-18T04:10:42;102127.31;;;-1.22;61.66
25510;BME280;13413;52.336;21.200;2022-12-18T04:14:02;102131.02;;;-1.24;61.54
25510;BME280;13413;52.336;21.200;2022-12-18T04:17:22;102130.52;;;-1.29;61.57
25510;BME280;13413;52.336;21.200;2022-12-18T04:20:42;102136.45;;;-1.25;61.82
25510;BME280;13413;52.336;21.200;2022-12-18T04:24:02;102143.19;;;-1.29;61.36
25510;BME280;13413;52.336;21.200;2022-12-18T04:27:21;102144.98;;;-1.35;61.53
25510;BME280;13413;52.336;21.200;2022-12-18T04:30:41;102155.09;;;-1.36;61.36
25510;BME280;13413;52.336;21.200;2022-12-18T04:34:03;102161.58;;;-1.44;61.15
25510;BME280;13413;52.336;21.200;2022-12-18T04:37:23;102172.59;;;-1.51;61.04
25510;BME280;13413;52.336;21.200;2022-12-18T04:40:43;102176.59;;;-1.51;61.35
25510;BME280;13413;52.336;21.200;2022-12-18T04:44:04;102184.85;;;-1.48;61.32
25510;BME280;13413;52.336;21.200;2022-12-18T04:47:24;102190.45;;;-1.45;61.41
25510;BME280;13413;52.336;21.200;2022-12-18T04:50:44;102191.52;;;-1.41;61.23
25510;BME280;13413;52.336;21.200;2022-12-18T04:57:36;102203.73;;;-1.38;61.32
25510;BME280;13413;52.336;21.200;2022-12-18T05:00:55;102199.82;;;-1.46;61.19
25510;BME280;13413;52.336;21.200;2022-12-18T05:04:15;102203.44;;;-1.50;60.98
25510;BME280;13413;52.336;21.200;2022-12-18T05:07:34;102211.30;;;-1.52;61.15
25510;BME280;13413;52.336;21.200;2022-12-18T05:11:01;102217.92;;;-1.57;60.93
25510;BME280;13413;52.336;21.200;2022-12-18T05:14:20;102220.79;;;-1.60;60.92
25510;BME280;13413;52.336;21.200;2022-12-18T05:17:38;102223.65;;;-1.62;60.87
25510;BME280;13413;52.336;21.200;2022-12-18T05:20:58;102228.44;;;-1.60;61.06
25510;BME280;13413;52.336;21.200;2022-12-18T05:24:16;102231.20;;;-1.60;61.14
25510;BME280;13413;52.336;21.200;2022-12-18T05:27:36;102235.69;;;-1.55;60.92
25510;BME280;13413;52.336;21.200;2022-12-18T05:30:57;102239.67;;;-1.59;60.96
25510;BME280;13413;52.336;21.200;2022-12-18T05:34:18;102243.23;;;-1.72;60.92
25510;BME280;13413;52.336;21.200;2022-12-18T05:37:38;102244.96;;;-1.77;61.08
25510;BME280;13413;52.336;21.200;2022-12-18T05:40:55;102250.73;;;-1.73;61.30
25510;BME280;13413;52.336;21.200;2022-12-18T05:50:12;102265.52;;;-1.64;61.08
25510;BME280;13413;52.336;21.200;2022-12-18T05:53:31;102274.73;;;-1.60;61.14
25510;BME280;13413;52.336;21.200;2022-12-18T05:56:50;102277.94;;;-1.52;61.18
25510;BME280;13413;52.336;21.200;2022-12-18T06:00:12;102277.90;;;-1.56;61.05
25510;BME280;13413;52.336;21.200;2022-12-18T06:03:32;102276.48;;;-1.60;60.99
25510;BME280;13413;52.336;21.200;2022-12-18T06:06:51;102280.70;;;-1.62;61.10
25510;BME280;13413;52.336;21.200;2022-12-18T06:10:11;102292.48;;;-1.77;60.65
25510;BME280;13413;52.336;21.200;2022-12-18T06:13:31;102296.86;;;-1.84;61.33
25510;BME280;13413;52.336;21.200;2022-12-18T06:16:53;102297.06;;;-1.80;61.04
25510;BME280;13413;52.336;21.200;2022-12-18T06:20:12;102300.34;;;-1.79;61.12
25510;BME280;13413;52.336;21.200;2022-12-18T06:23:32;102309.36;;;-1.74;61.00
25510;BME280;13413;52.336;21.200;2022-12-18T06:26:52;102311.18;;;-1.71;61.40
25510;BME280;13413;52.336;21.200;2022-12-18T06:30:14;102316.98;;;-1.73;61.23
25510;BME280;13413;52.336;21.200;2022-12-18T06:33:35;102328.40;;;-1.67;61.15
25510;BME280;13413;52.336;21.200;2022-12-18T06:36:54;102335.45;;;-1.65;61.06
25510;BME280;13413;52.336;21.200;2022-12-18T06:40:15;102335.66;;;-1.66;60.98
25510;BME280;13413;52.336;21.200;2022-12-18T06:43:34;102339.33;;;-1.67;61.00
25510;BME280;13413;52.336;21.200;2022-12-18T06:46:54;102348.30;;;-1.71;61.00
25510;BME280;13413;52.336;21.200;2022-12-18T06:50:14;102359.92;;;-1.77;61.00
25510;BME280;13413;52.336;21.200;2022-12-18T06:53:34;102368.46;;;-1.78;60.97
25510;BME280;13413;52.336;21.200;2022-12-18T06:56:56;102371.19;;;-1.82;61.06
25510;BME280;13413;52.336;21.200;2022-12-18T07:00:17;102377.47;;;-1.83;61.19
25510;BME280;13413;52.336;21.200;2022-12-18T07:03:36;102382.89;;;-1.84;61.10
25510;BME280;13413;52.336;21.200;2022-12-18T07:06:56;102386.33;;;-1.84;61.26
25510;BME280;13413;52.336;21.200;2022-12-18T07:10:15;102393.13;;;-1.74;61.26
25510;BME280;13413;52.336;21.200;2022-12-18T07:13:35;102393.11;;;-1.73;61.06
25510;BME280;13413;52.336;21.200;2022-12-18T07:16:55;102407.25;;;-1.65;61.18
25510;BME280;13413;52.336;21.200;2022-12-18T07:20:15;102407.95;;;-1.66;61.29
25510;BME280;13413;52.336;21.200;2022-12-18T07:27:13;102423.44;;;-1.51;61.36
25510;BME280;13413;52.336;21.200;2022-12-18T07:30:31;102429.30;;;-1.44;61.46
25510;BME280;13413;52.336;21.200;2022-12-18T07:33:52;102433.92;;;-1.42;61.04
25510;BME280;13413;52.336;21.200;2022-12-18T07:37:11;102433.03;;;-1.46;60.77
25510;BME280;13413;52.336;21.200;2022-12-18T07:44:03;102433.06;;;-1.75;60.62
25510;BME280;13413;52.336;21.200;2022-12-18T07:47:22;102436.23;;;-1.83;60.95
25510;BME280;13413;52.336;21.200;2022-12-18T07:50:42;102441.89;;;-1.80;60.92
25510;BME280;13413;52.336;21.200;2022-12-18T07:54:01;102450.14;;;-1.84;60.91
25510;BME280;13413;52.336;21.200;2022-12-18T07:57:20;102452.91;;;-1.67;61.32
25510;BME280;13413;52.336;21.200;2022-12-18T08:00:40;102464.08;;;-1.69;61.11
25510;BME280;13413;52.336;21.200;2022-12-18T08:09:56;102487.02;;;-1.88;60.86
25510;BME280;13413;52.336;21.200;2022-12-18T08:13:17;102485.58;;;-1.80;61.34
25510;BME280;13413;52.336;21.200;2022-12-18T08:20:17;102485.65;;;-1.54;61.40
25510;BME280;13413;52.336;21.200;2022-12-18T08:23:37;102485.23;;;-1.46;61.21
25510;BME280;13413;52.336;21.200;2022-12-18T08:26:55;102488.85;;;-1.51;61.28
25510;BME280;13413;52.336;21.200;2022-12-18T08:30:27;102495.30;;;-1.46;61.00
25510;BME280;13413;52.336;21.200;2022-12-18T08:33:47;102506.06;;;-1.52;60.99
25510;BME280;13413;52.336;21.200;2022-12-18T08:37:07;102512.52;;;-1.53;61.33
25510;BME280;13413;52.336;21.200;2022-12-18T08:40:26;102516.20;;;-1.49;61.07
25510;BME280;13413;52.336;21.200;2022-12-18T08:43:47;102521.18;;;-1.41;61.13
25510;BME280;13413;52.336;21.200;2022-12-18T08:47:07;102519.39;;;-1.39;60.95
25510;BME280;13413;52.336;21.200;2022-12-18T08:50:28;102523.20;;;-1.51;60.90
25510;BME280;13413;52.336;21.200;2022-12-18T08:53:50;102527.53;;;-1.45;61.38
25510;BME280;13413;52.336;21.200;2022-12-18T08:57:09;102534.65;;;-1.33;61.34
25510;BME280;13413;52.336;21.200;2022-12-18T09:00:29;102538.26;;;-1.43;61.13
25510;BME280;13413;52.336;21.200;2022-12-18T09:03:51;102535.05;;;-1.41;61.20
25510;BME280;13413;52.336;21.200;2022-12-18T09:07:11;102541.78;;;-1.45;61.22
25510;BME280;13413;52.336;21.200;2022-12-18T09:10:30;102547.33;;;-1.39;61.66
25510;BME280;13413;52.336;21.200;2022-12-18T09:13:50;102546.63;;;-1.27;61.28
25510;BME280;13413;52.336;21.200;2022-12-18T09:17:11;102548.17;;;-1.27;61.35
25510;BME280;13413;52.336;21.200;2022-12-18T09:20:31;102549.09;;;-1.23;61.15
25510;BME280;13413;52.336;21.200;2022-12-18T09:23:52;102547.87;;;-1.17;61.52
25510;BME280;13413;52.336;21.200;2022-12-18T09:27:12;102546.20;;;-0.97;61.50
25510;BME280;13413;52.336;21.200;2022-12-18T09:30:32;102543.33;;;-0.83;61.58
25510;BME280;13413;52.336;21.200;2022-12-18T09:34:12;102544.52;;;-0.77;61.38
25510;BME280;13413;52.336;21.200;2022-12-18T09:37:30;102551.88;;;-0.79;61.23
25510;BME280;13413;52.336;21.200;2022-12-18T09:44:27;102552.64;;;-0.71;61.55
25510;BME280;13413;52.336;21.200;2022-12-18T09:47:49;102552.97;;;-0.54;61.40
25510;BME280;13413;52.336;21.200;2022-12-18T09:51:14;102559.63;;;-0.45;61.16
25510;BME280;13413;52.336;21.200;2022-12-18T09:54:38;102561.06;;;-0.47;61.23
25510;BME280;13413;52.336;21.200;2022-12-18T09:58:15;102564.90;;;-0.52;61.34
25510;BME280;13413;52.336;21.200;2022-12-18T10:01:36;102566.33;;;-0.38;61.26
25510;BME280;13413;52.336;21.200;2022-12-18T10:05:13;102564.41;;;-0.33;60.98
25510;BME280;13413;52.336;21.200;2022-12-18T10:08:39;102564.09;;;-0.28;61.40
25510;BME280;13413;52.336;21.200;2022-12-18T10:12:11;102562.44;;;-0.21;61.05
25510;BME280;13413;52.336;21.200;2022-12-18T10:15:38;102563.39;;;-0.33;61.15
25510;BME280;13413;52.336;21.200;2022-12-18T10:19:05;102558.05;;;-0.34;61.32
25510;BME280;13413;52.336;21.200;2022-12-18T10:25:18;102566.38;;;-0.39;61.18
25510;BME280;13413;52.336;21.200;2022-12-18T10:28:41;102572.47;;;-0.50;61.36
25510;BME280;13413;52.336;21.200;2022-12-18T10:32:01;102582.79;;;-0.57;61.48
25510;BME280;13413;52.336;21.200;2022-12-18T10:35:22;102582.88;;;-0.45;61.71
25510;BME280;13413;52.336;21.200;2022-12-18T10:38:42;102580.63;;;-0.39;61.52
25510;BME280;13413;52.336;21.200;2022-12-18T10:42:14;102582.55;;;-0.35;61.71
25510;BME280;13413;52.336;21.200;2022-12-18T10:45:35;102576.61;;;-0.18;61.55
25510;BME280;13413;52.336;21.200;2022-12-18T10:48:56;102568.23;;;-0.27;61.38
25510;BME280;13413;52.336;21.200;2022-12-18T10:52:20;102573.59;;;-0.31;61.36
25510;BME280;13413;52.336;21.200;2022-12-18T10:55:40;102581.43;;;-0.27;61.54
25510;BME280;13413;52.336;21.200;2022-12-18T11:02:46;102577.66;;;-0.14;61.40
25510;BME280;13413;52.336;21.200;2022-12-18T11:09:41;102577.67;;;-0.24;61.43
25510;BME280;13413;52.336;21.200;2022-12-18T11:13:15;102585.58;;;-0.21;61.45
25510;BME280;13413;52.336;21.200;2022-12-18T11:16:43;102595.68;;;-0.17;61.49
25510;BME280;13413;52.336;21.200;2022-12-18T11:20:06;102593.08;;;-0.17;61.36
25510;BME280;13413;52.336;21.200;2022-12-18T11:23:26;102601.23;;;-0.12;61.52
25510;BME280;13413;52.336;21.200;2022-12-18T11:26:45;102597.29;;;-0.13;61.34
25510;BME280;13413;52.336;21.200;2022-12-18T11:30:20;102598.27;;;-0.06;61.53
25510;BME280;13413;52.336;21.200;2022-12-18T11:33:43;102594.40;;;0.00;61.31
25510;BME280;13413;52.336;21.200;2022-12-18T11:37:04;102589.98;;;0.08;61.26
25510;BME280;13413;52.336;21.200;2022-12-18T11:40:27;102581.39;;;0.10;61.18
25510;BME280;13413;52.336;21.200;2022-12-18T11:43:55;102589.70;;;0.00;61.16
25510;BME280;13413;52.336;21.200;2022-12-18T11:47:26;102598.22;;;0.16;61.60
25510;BME280;13413;52.336;21.200;2022-12-18T11:50:51;102598.27;;;0.38;61.36
25510;BME280;13413;52.336;21.200;2022-12-18T11:54:14;102597.14;;;0.41;61.03
25510;BME280;13413;52.336;21.200;2022-12-18T11:57:39;102598.80;;;0.38;61.00
25510;BME280;13413;52.336;21.200;2022-12-18T12:01:10;102597.95;;;0.32;61.08
25510;BME280;13413;52.336;21.200;2022-12-18T12:04:48;102596.16;;;0.24;60.91
25510;BME280;13413;52.336;21.200;2022-12-18T12:08:17;102609.50;;;0.16;61.17
25510;BME280;13413;52.336;21.200;2022-12-18T12:11:48;102609.27;;;0.27;61.07
25510;BME280;13413;52.336;21.200;2022-12-18T12:15:17;102609.44;;;0.28;61.02
25510;BME280;13413;52.336;21.200;2022-12-18T12:18:54;102620.23;;;0.32;61.11
25510;BME280;13413;52.336;21.200;2022-12-18T12:22:23;102622.39;;;0.35;61.07
25510;BME280;13413;52.336;21.200;2022-12-18T12:25:48;102629.61;;;0.43;61.07
25510;BME280;13413;52.336;21.200;2022-12-18T12:29:23;102624.19;;;0.48;61.11
25510;BME280;13413;52.336;21.200;2022-12-18T12:32:58;102619.88;;;0.57;61.10
25510;BME280;13413;52.336;21.200;2022-12-18T12:36:20;102614.77;;;0.67;60.99
25510;BME280;13413;52.336;21.200;2022-12-18T12:45:44;102634.30;;;0.67;60.42
25510;BME280;13413;52.336;21.200;2022-12-18T12:49:11;102638.27;;;0.44;60.61
25510;BME280;13413;52.336;21.200;2022-12-18T12:52:37;102644.58;;;0.23;60.62
25510;BME280;13413;52.336;21.200;2022-12-18T12:56:00;102652.36;;;0.15;60.79
25510;BME280;13413;52.336;21.200;2022-12-18T12:59:25;102654.13;;;0.13;60.87
25510;BME280;13413;52.336;21.200;2022-12-18T13:02:54;102649.59;;;0.09;60.80
25510;BME280;13413;52.336;21.200;2022-12-18T13:06:26;102651.96;;;-0.05;60.66
25510;BME280;13413;52.336;21.200;2022-12-18T13:10:14;102658.37;;;-0.20;60.87
25510;BME280;13413;52.336;21.200;2022-12-18T13:13:54;102663.68;;;-0.22;60.97
25510;BME280;13413;52.336;21.200;2022-12-18T13:17:31;102666.16;;;-0.29;61.01
25510;BME280;13413;52.336;21.200;2022-12-18T13:21:01;102667.55;;;-0.29;61.02
25510;BME280;13413;52.336;21.200;2022-12-18T13:24:26;102679.66;;;-0.32;61.08
25510;BME280;13413;52.336;21.200;2022-12-18T13:28:08;102683.35;;;-0.28;61.10
25510;BME280;13413;52.336;21.200;2022-12-18T13:35:50;102687.91;;;-0.29;61.22
25510;BME280;13413;52.336;21.200;2022-12-18T13:39:33;102696.20;;;-0.28;61.24
25510;BME280;13413;52.336;21.200;2022-12-18T13:42:53;102695.71;;;-0.18;61.31
25510;BME280;13413;52.336;21.200;2022-12-18T13:46:25;102693.77;;;-0.12;61.21
25510;BME280;13413;52.336;21.200;2022-12-18T13:49:48;102698.05;;;-0.10;61.27
25510;BME280;13413;52.336;21.200;2022-12-18T13:53:11;102703.77;;;-0.04;61.30
25510;BME280;13413;52.336;21.200;2022-12-18T13:56:42;102697.08;;;-0.07;61.14
25510;BME280;13413;52.336;21.200;2022-12-18T14:00:28;102699.86;;;-0.07;61.08
25510;BME280;13413;52.336;21.200;2022-12-18T14:03:51;102714.36;;;-0.09;61.19
25510;BME280;13413;52.336;21.200;2022-12-18T14:07:29;102721.11;;;-0.02;61.28
25510;BME280;13413;52.336;21.200;2022-12-18T14:10:50;102719.87;;;-0.02;61.16
25510;BME280;13413;52.336;21.200;2022-12-18T14:14:09;102720.43;;;-0.04;61.23
25510;BME280;13413;52.336;21.200;2022-12-18T14:17:33;102718.99;;;-0.01;61.24
25510;BME280;13413;52.336;21.200;2022-12-18T14:20:56;102716.22;;;-0.07;61.17
25510;BME280;13413;52.336;21.200;2022-12-18T14:24:19;102713.34;;;-0.10;61.27
25510;BME280;13413;52.336;21.200;2022-12-18T14:27:44;102717.44;;;-0.07;61.42
25510;BME280;13413;52.336;21.200;2022-12-18T14:31:04;102719.55;;;-0.03;61.32
25510;BME280;13413;52.336;21.200;2022-12-18T14:34:27;102718.48;;;0.03;61.31
25510;BME280;13413;52.336;21.200;2022-12-18T14:37:47;102717.15;;;0.17;61.16
25510;BME280;13413;52.336;21.200;2022-12-18T14:41:10;102713.40;;;0.15;61.02
25510;BME280;13413;52.336;21.200;2022-12-18T14:44:29;102715.67;;;0.04;61.10
25510;BME280;13413;52.336;21.200;2022-12-18T14:51:21;102722.75;;;0.11;61.15
25510;BME280;13413;52.336;21.200;2022-12-18T14:54:40;102723.61;;;0.12;61.06
25510;BME280;13413;52.336;21.200;2022-12-18T14:57:57;102732.06;;;0.04;61.15
25510;BME280;13413;52.336;21.200;2022-12-18T15:06:26;102732.79;;;0.13;61.07
25510;BME280;13413;52.336;21.200;2022-12-18T15:10:03;102737.28;;;0.13;60.98
25510;BME280;13413;52.336;21.200;2022-12-18T15:13:25;102749.16;;;0.12;61.12
25510;BME280;13413;52.336;21.200;2022-12-18T15:16:44;102748.27;;;0.02;61.08
25510;BME280;13413;52.336;21.200;2022-12-18T15:20:10;102749.17;;;0.01;61.08
25510;BME280;13413;52.336;21.200;2022-12-18T15:23:33;102753.45;;;-0.02;61.15
25510;BME280;13413;52.336;21.200;2022-12-18T15:30:24;102762.10;;;0.05;61.27
25510;BME280;13413;52.336;21.200;2022-12-18T15:33:59;102761.80;;;0.09;61.15
25510;BME280;13413;52.336;21.200;2022-12-18T15:37:20;102769.76;;;0.05;61.15
25510;BME280;13413;52.336;21.200;2022-12-18T15:40:39;102763.38;;;0.03;61.25
25510;BME280;13413;52.336;21.200;2022-12-18T15:43:57;102771.34;;;-0.02;61.26
25510;BME280;13413;52.336;21.200;2022-12-18T15:47:17;102770.44;;;-0.00;61.32
25510;BME280;13413;52.336;21.200;2022-12-18T15:50:37;102773.02;;;-0.05;61.25
25510;BME280;13413;52.336;21.200;2022-12-18T15:57:18;102767.54;;;-0.13;61.36
25510;BME280;13413;52.336;21.200;2022-12-18T16:00:39;102768.66;;;-0.16;61.32
25510;BME280;13413;52.336;21.200;2022-12-18T16:04:00;102783.22;;;-0.20;61.30
25510;BME280;13413;52.336;21.200;2022-12-18T16:07:19;102783.10;;;-0.21;61.37
25510;BME280;13413;52.336;21.200;2022-12-18T16:10:39;102786.37;;;-0.20;61.30
25510;BME280;13413;52.336;21.200;2022-12-18T16:13:59;102789.10;;;-0.24;61.29
25510;BME280;13413;52.336;21.200;2022-12-18T16:17:19;102789.15;;;-0.26;61.40
25510;BME280;13413;52.336;21.200;2022-12-18T16:20:40;102786.73;;;-0.20;61.57
25510;BME280;13413;52.336;21.200;2022-12-18T16:24:01;102786.10;;;-0.23;61.50
25510;BME280;13413;52.336;21.200;2022-12-18T16:27:20;102788.15;;;-0.28;61.25
25510;BME280;13413;52.336;21.200;2022-12-18T16:30:40;102793.39;;;-0.28;61.14
25510;BME280;13413;52.336;21.200;2022-12-18T16:34:15;102794.11;;;-0.29;61.26
25510;BME280;13413;52.336;21.200;2022-12-18T16:37:35;102796.27;;;-0.31;61.24
25510;BME280;13413;52.336;21.200;2022-12-18T16:40:56;102793.94;;;-0.34;61.19
25510;BME280;13413;52.336;21.200;2022-12-18T16:44:16;102791.08;;;-0.38;61.30
25510;BME280;13413;52.336;21.200;2022-12-18T16:47:36;102790.52;;;-0.37;61.30
25510;BME280;13413;52.336;21.200;2022-12-18T16:51:01;102783.98;;;-0.39;61.39
25510;BME280;13413;52.336;21.200;2022-12-18T16:54:22;102784.63;;;-0.37;61.37
25510;BME280;13413;52.336;21.200;2022-12-18T16:57:42;102780.59;;;-0.36;61.54
25510;BME280;13413;52.336;21.200;2022-12-18T17:01:03;102788.30;;;-0.33;61.45
25510;BME280;13413;52.336;21.200;2022-12-18T17:04:25;102788.34;;;-0.39;61.53
25510;BME280;13413;52.336;21.200;2022-12-18T17:07:45;102789.36;;;-0.50;61.63
25510;BME280;13413;52.336;21.200;2022-12-18T17:11:08;102795.06;;;-0.55;61.61
25510;BME280;13413;52.336;21.200;2022-12-18T17:14:28;102798.84;;;-0.59;61.63
25510;BME280;13413;52.336;21.200;2022-12-18T17:17:48;102801.96;;;-0.59;61.59
25510;BME280;13413;52.336;21.200;2022-12-18T17:27:08;102821.09;;;-0.54;61.64
25510;BME280;13413;52.336;21.200;2022-12-18T17:30:26;102830.55;;;-0.62;61.59
25510;BME280;13413;52.336;21.200;2022-12-18T17:33:46;102824.06;;;-0.66;61.65
25510;BME280;13413;52.336;21.200;2022-12-18T17:37:06;102830.44;;;-0.71;61.60
25510;BME280;13413;52.336;21.200;2022-12-18T17:40:26;102822.55;;;-0.74;61.60
25510;BME280;13413;52.336;21.200;2022-12-18T17:43:51;102817.23;;;-0.76;61.66
25510;BME280;13413;52.336;21.200;2022-12-18T17:47:10;102820.64;;;-0.80;61.59
25510;BME280;13413;52.336;21.200;2022-12-18T17:50:32;102822.61;;;-0.82;61.90
25510;BME280;13413;52.336;21.200;2022-12-18T17:53:54;102813.73;;;-0.81;61.85
25510;BME280;13413;52.336;21.200;2022-12-18T17:57:13;102816.73;;;-0.90;61.89
25510;BME280;13413;52.336;21.200;2022-12-18T18:00:33;102817.77;;;-0.90;61.91
25510;BME280;13413;52.336;21.200;2022-12-18T18:03:53;102828.39;;;-0.84;61.86
25510;BME280;13413;52.336;21.200;2022-12-18T18:07:13;102834.88;;;-0.80;61.91
25510;BME280;13413;52.336;21.200;2022-12-18T18:10:35;102845.64;;;-0.86;62.08
25510;BME280;13413;52.336;21.200;2022-12-18T18:13:55;102845.11;;;-0.93;62.17
25510;BME280;13413;52.336;21.200;2022-12-18T18:17:15;102842.56;;;-0.95;62.25
25510;BME280;13413;52.336;21.200;2022-12-18T18:20:39;102844.39;;;-1.05;62.39
25510;BME280;13413;52.336;21.200;2022-12-18T18:24:01;102839.77;;;-1.20;62.59
25510;BME280;13413;52.336;21.200;2022-12-18T18:27:20;102831.27;;;-1.40;62.79
25510;BME280;13413;52.336;21.200;2022-12-18T18:30:39;102828.77;;;-1.44;62.74
25510;BME280;13413;52.336;21.200;2022-12-18T18:33:59;102831.51;;;-1.50;62.81
25510;BME280;13413;52.336;21.200;2022-12-18T18:37:19;102832.94;;;-1.38;62.79
25510;BME280;13413;52.336;21.200;2022-12-18T18:40:39;102838.86;;;-1.39;62.69
25510;BME280;13413;52.336;21.200;2022-12-18T18:43:59;102843.48;;;-1.44;62.93
25510;BME280;13413;52.336;21.200;2022-12-18T18:47:19;102854.63;;;-1.52;62.98
25510;BME280;13413;52.336;21.200;2022-12-18T18:50:39;102852.36;;;-1.66;63.33